sensor_id;sensor_type;location;lat;lon;timestamp;temperature;humidity
10089;DHT22;51898;49.864;8.550;2022-08-14T00:00:35;23.10;99.90
10089;DHT22;51898;49.864;8.550;2022-08-14T00:03:37;23.10;99.90
10089;DHT22;51898;49.864;8.550;2022-08-14T00:06:41;23.00;99.90
10089;DHT22;51898;49.864;8.550;2022-08-14T00:09:47;22.90;99.90
10089;DHT22;51898;49.864;8.550;2022-08-14T00:13:10;22.80;99.90
10089;DHT22;51898;49.864;8.550;2022-08-14T00:16:14;22.50;99.90
10089;DHT22;51898;49.864;8.550;2022-08-14T00:19:35;22.40;99.90
10089;DHT22;51898;49.864;8.550;2022-08-14T00:22:38;22.10;99.90
10089;DHT22;51898;49.864;8.550;2022-08-14T00:25:57;21.90;99.90
10089;DHT22;51898;49.864;8.550;2022-08-14T00:29:08;21.70;99.90
10089;DHT22;51898;49.864;8.550;2022-08-14T00:32:10;21.50;99.90
10089;DHT22;51898;49.864;8.550;2022-08-14T00:35:34;21.40;99.90
10089;DHT22;51898;49.864;8.550;2022-08-14T00:38:56;21.30;99.90
10089;DHT22;51898;49.864;8.550;2022-08-14T00:41:58;21.20;99.90
10089;DHT22;51898;49.864;8.550;2022-08-14T00:45:02;21.20;99.90
10089;DHT22;51898;49.864;8.550;2022-08-14T00:48:04;21.20;99.90
10089;DHT22;51898;49.864;8.550;2022-08-14T00:51:25;21.20;99.90
10089;DHT22;51898;49.864;8.550;2022-08-14T00:54:38;21.20;99.90
10089;DHT22;51898;49.864;8.550;2022-08-14T00:57:40;21.20;99.90
10089;DHT22;51898;49.864;8.550;2022-08-14T01:04:01;21.10;99.90
10089;DHT22;51898;49.864;8.550;2022-08-14T01:07:06;21.10;99.90
10089;DHT22;51898;49.864;8.550;2022-08-14T01:10:10;21.00;99.90
10089;DHT22;51898;49.864;8.550;2022-08-14T01:13:17;20.90;99.90
10089;DHT22;51898;49.864;8.550;2022-08-14T01:16:19;20.90;99.90
10089;DHT22;51898;49.864;8.550;2022-08-14T01:19:28;20.80;99.90
10089;DHT22;51898;49.864;8.550;2022-08-14T01:22:50;20.70;99.90
10089;DHT22;51898;49.864;8.550;2022-08-14T01:25:52;20.60;99.90
10089;DHT22;51898;49.864;8.550;2022-08-14T01:28:56;20.60;99.90
10089;DHT22;51898;49.864;8.550;2022-08-14T01:31:59;20.60;99.90
10089;DHT22;51898;49.864;8.550;2022-08-14T01:35:05;20.50;99.90
10089;DHT22;51898;49.864;8.550;2022-08-14T01:38:28;20.50;99.90
10089;DHT22;51898;49.864;8.550;2022-08-14T01:41:38;20.40;99.90
10089;DHT22;51898;49.864;8.550;2022-08-14T01:44:40;20.40;99.90
10089;DHT22;51898;49.864;8.550;2022-08-14T01:47:50;20.40;99.90
10089;DHT22;51898;49.864;8.550;2022-08-14T01:50:52;20.30;99.90
10089;DHT22;51898;49.864;8.550;2022-08-14T01:53:56;20.30;99.90
10089;DHT22;51898;49.864;8.550;2022-08-14T01:56:59;20.20;99.90
10089;DHT22;51898;49.864;8.550;2022-08-14T02:00:01;20.20;99.90
10089;DHT22;51898;49.864;8.550;2022-08-14T02:03:04;20.10;99.90
10089;DHT22;51898;49.864;8.550;2022-08-14T02:06:07;20.10;99.90
10089;DHT22;51898;49.864;8.550;2022-08-14T02:09:32;20.10;99.90
10089;DHT22;51898;49.864;8.550;2022-08-14T02:12:40;20.00;99.90
10089;DHT22;51898;49.864;8.550;2022-08-14T02:15:43;20.00;99.90
10089;DHT22;51898;49.864;8.550;2022-08-14T02:18:46;20.00;99.90
10089;DHT22;51898;49.864;8.550;2022-08-14T02:21:52;20.00;99.90
10089;DHT22;51898;49.864;8.550;2022-08-14T02:24:55;20.00;99.90
10089;DHT22;51898;49.864;8.550;2022-08-14T02:27:57;20.00;99.90
10089;DHT22;51898;49.864;8.550;2022-08-14T02:31:19;19.90;99.90
10089;DHT22;51898;49.864;8.550;2022-08-14T02:34:31;19.90;99.90
10089;DHT22;51898;49.864;8.550;2022-08-14T02:37:36;19.90;99.90
10089;DHT22;51898;49.864;8.550;2022-08-14T02:40:49;19.90;99.90
10089;DHT22;51898;49.864;8.550;2022-08-14T02:43:51;19.80;99.90
10089;DHT22;51898;49.864;8.550;2022-08-14T02:46:53;19.70;99.90
10089;DHT22;51898;49.864;8.550;2022-08-14T02:50:03;19.60;99.90
10089;DHT22;51898;49.864;8.550;2022-08-14T02:53:07;19.40;99.90
10089;DHT22;51898;49.864;8.550;2022-08-14T02:56:11;19.30;99.90
10089;DHT22;51898;49.864;8.550;2022-08-14T02:59:35;19.20;99.90
10089;DHT22;51898;49.864;8.550;2022-08-14T03:02:43;19.10;99.90
10089;DHT22;51898;49.864;8.550;2022-08-14T03:05:59;19.00;99.90
10089;DHT22;51898;49.864;8.550;2022-08-14T03:09:01;18.90;99.90
10089;DHT22;51898;49.864;8.550;2022-08-14T03:12:05;18.90;99.90
10089;DHT22;51898;49.864;8.550;2022-08-14T03:15:07;18.90;99.90
10089;DHT22;51898;49.864;8.550;2022-08-14T03:18:17;18.90;99.90
10089;DHT22;51898;49.864;8.550;2022-08-14T03:21:21;18.80;99.90
10089;DHT22;51898;49.864;8.550;2022-08-14T03:24:23;18.80;99.90
10089;DHT22;51898;49.864;8.550;2022-08-14T03:27:26;18.80;99.90
10089;DHT22;51898;49.864;8.550;2022-08-14T03:30:49;18.80;99.90
10089;DHT22;51898;49.864;8.550;2022-08-14T03:33:55;18.70;99.90
10089;DHT22;51898;49.864;8.550;2022-08-14T03:37:00;18.70;99.90
10089;DHT22;51898;49.864;8.550;2022-08-14T03:40:22;18.70;99.90
10089;DHT22;51898;49.864;8.550;2022-08-14T03:43:25;18.70;99.90
10089;DHT22;51898;49.864;8.550;2022-08-14T03:46:35;18.70;99.90
10089;DHT22;51898;49.864;8.550;2022-08-14T03:49:53;18.70;99.90
10089;DHT22;51898;49.864;8.550;2022-08-14T03:53:00;18.70;99.90
10089;DHT22;51898;49.864;8.550;2022-08-14T03:56:04;18.70;99.90
10089;DHT22;51898;49.864;8.550;2022-08-14T03:59:08;18.70;99.90
10089;DHT22;51898;49.864;8.550;2022-08-14T04:02:18;18.60;99.90
10089;DHT22;51898;49.864;8.550;2022-08-14T04:05:37;18.60;99.90
10089;DHT22;51898;49.864;8.550;2022-08-14T04:08:49;18.50;99.90
10089;DHT22;51898;49.864;8.550;2022-08-14T04:11:51;18.50;99.90
10089;DHT22;51898;49.864;8.550;2022-08-14T04:14:53;18.50;99.90
10089;DHT22;51898;49.864;8.550;2022-08-14T04:17:54;18.50;99.90
10089;DHT22;51898;49.864;8.550;2022-08-14T04:20:57;18.50;99.90
10089;DHT22;51898;49.864;8.550;2022-08-14T04:24:00;18.50;99.90
10089;DHT22;51898;49.864;8.550;2022-08-14T04:27:02;18.50;99.90
10089;DHT22;51898;49.864;8.550;2022-08-14T04:30:05;18.60;99.90
10089;DHT22;51898;49.864;8.550;2022-08-14T04:33:07;18.50;99.90
10089;DHT22;51898;49.864;8.550;2022-08-14T04:36:21;18.50;99.90
10089;DHT22;51898;49.864;8.550;2022-08-14T04:39:24;18.50;99.90
10089;DHT22;51898;49.864;8.550;2022-08-14T04:42:47;18.60;99.90
10089;DHT22;51898;49.864;8.550;2022-08-14T04:46:16;18.60;99.90
10089;DHT22;51898;49.864;8.550;2022-08-14T04:49:38;18.80;99.90
10089;DHT22;51898;49.864;8.550;2022-08-14T04:52:58;18.80;99.90
10089;DHT22;51898;49.864;8.550;2022-08-14T04:56:03;19.00;99.90
10089;DHT22;51898;49.864;8.550;2022-08-14T04:59:11;19.00;99.90
10089;DHT22;51898;49.864;8.550;2022-08-14T05:02:13;19.10;99.90
10089;DHT22;51898;49.864;8.550;2022-08-14T05:05:18;19.20;99.90
10089;DHT22;51898;49.864;8.550;2022-08-14T05:08:21;19.20;99.90
10089;DHT22;51898;49.864;8.550;2022-08-14T05:11:44;19.40;99.90
10089;DHT22;51898;49.864;8.550;2022-08-14T05:14:46;19.50;99.90
10089;DHT22;51898;49.864;8.550;2022-08-14T05:17:56;19.60;99.90
10089;DHT22;51898;49.864;8.550;2022-08-14T05:21:17;19.80;99.90
10089;DHT22;51898;49.864;8.550;2022-08-14T05:24:39;20.00;99.90
10089;DHT22;51898;49.864;8.550;2022-08-14T05:27:41;20.20;99.90
10089;DHT22;51898;49.864;8.550;2022-08-14T05:30:43;20.30;99.90
10089;DHT22;51898;49.864;8.550;2022-08-14T05:33:45;20.50;99.90
10089;DHT22;51898;49.864;8.550;2022-08-14T05:36:57;20.70;99.90
10089;DHT22;51898;49.864;8.550;2022-08-14T05:40:03;20.80;99.90
10089;DHT22;51898;49.864;8.550;2022-08-14T05:43:07;20.90;99.90
10089;DHT22;51898;49.864;8.550;2022-08-14T05:46:11;21.10;99.90
10089;DHT22;51898;49.864;8.550;2022-08-14T05:49:16;21.20;99.90
10089;DHT22;51898;49.864;8.550;2022-08-14T05:52:18;21.40;99.90
10089;DHT22;51898;49.864;8.550;2022-08-14T05:55:39;21.60;99.90
10089;DHT22;51898;49.864;8.550;2022-08-14T05:58:44;21.80;99.90
10089;DHT22;51898;49.864;8.550;2022-08-14T06:01:46;22.10;99.90
10089;DHT22;51898;49.864;8.550;2022-08-14T06:04:51;22.30;99.90
10089;DHT22;51898;49.864;8.550;2022-08-14T06:07:53;22.40;99.90
10089;DHT22;51898;49.864;8.550;2022-08-14T06:10:59;22.70;99.90
10089;DHT22;51898;49.864;8.550;2022-08-14T06:14:04;22.90;99.90
10089;DHT22;51898;49.864;8.550;2022-08-14T06:17:13;23.00;99.90
10089;DHT22;51898;49.864;8.550;2022-08-14T06:20:27;23.20;99.90
10089;DHT22;51898;49.864;8.550;2022-08-14T06:23:30;23.40;99.90
10089;DHT22;51898;49.864;8.550;2022-08-14T06:26:32;23.30;99.90
10089;DHT22;51898;49.864;8.550;2022-08-14T06:29:36;23.40;99.90
10089;DHT22;51898;49.864;8.550;2022-08-14T06:32:38;23.40;99.90
10089;DHT22;51898;49.864;8.550;2022-08-14T06:35:43;23.40;99.90
10089;DHT22;51898;49.864;8.550;2022-08-14T06:38:47;23.40;99.90
10089;DHT22;51898;49.864;8.550;2022-08-14T06:41:51;23.40;99.90
10089;DHT22;51898;49.864;8.550;2022-08-14T06:45:00;23.40;99.90
10089;DHT22;51898;49.864;8.550;2022-08-14T06:48:04;23.40;99.90
10089;DHT22;51898;49.864;8.550;2022-08-14T06:51:13;23.60;99.90
10089;DHT22;51898;49.864;8.550;2022-08-14T06:54:15;23.70;99.90
10089;DHT22;51898;49.864;8.550;2022-08-14T06:57:16;23.90;99.90
10089;DHT22;51898;49.864;8.550;2022-08-14T07:00:21;23.90;99.90
10089;DHT22;51898;49.864;8.550;2022-08-14T07:03:28;23.90;99.90
10089;DHT22;51898;49.864;8.550;2022-08-14T07:06:49;24.00;99.90
10089;DHT22;51898;49.864;8.550;2022-08-14T07:09:50;24.10;99.90
10089;DHT22;51898;49.864;8.550;2022-08-14T07:12:53;24.10;99.90
10089;DHT22;51898;49.864;8.550;2022-08-14T07:16:05;24.30;99.90
10089;DHT22;51898;49.864;8.550;2022-08-14T07:19:07;24.50;99.90
10089;DHT22;51898;49.864;8.550;2022-08-14T07:22:10;24.50;99.90
10089;DHT22;51898;49.864;8.550;2022-08-14T07:25:21;24.60;99.90
10089;DHT22;51898;49.864;8.550;2022-08-14T07:28:35;24.60;99.90
10089;DHT22;51898;49.864;8.550;2022-08-14T07:31:44;24.70;99.90
10089;DHT22;51898;49.864;8.550;2022-08-14T07:34:47;24.80;99.90
10089;DHT22;51898;49.864;8.550;2022-08-14T07:37:49;24.80;99.90
10089;DHT22;51898;49.864;8.550;2022-08-14T07:40:53;25.00;99.90
10089;DHT22;51898;49.864;8.550;2022-08-14T07:43:56;25.20;99.90
10089;DHT22;51898;49.864;8.550;2022-08-14T07:46:58;25.20;99.90
10089;DHT22;51898;49.864;8.550;2022-08-14T07:50:10;25.40;99.90
10089;DHT22;51898;49.864;8.550;2022-08-14T07:53:17;25.60;99.90
10089;DHT22;51898;49.864;8.550;2022-08-14T07:56:19;25.80;99.90
10089;DHT22;51898;49.864;8.550;2022-08-14T07:59:41;25.90;99.90
10089;DHT22;51898;49.864;8.550;2022-08-14T08:02:49;26.10;99.90
10089;DHT22;51898;49.864;8.550;2022-08-14T08:05:57;26.20;99.90
10089;DHT22;51898;49.864;8.550;2022-08-14T08:09:01;26.20;99.90
10089;DHT22;51898;49.864;8.550;2022-08-14T08:12:04;26.30;99.90
10089;DHT22;51898;49.864;8.550;2022-08-14T08:15:10;26.60;99.90
10089;DHT22;51898;49.864;8.550;2022-08-14T08:18:12;26.90;99.90
10089;DHT22;51898;49.864;8.550;2022-08-14T08:21:29;26.70;99.90
10089;DHT22;51898;49.864;8.550;2022-08-14T08:24:36;26.80;99.90
10089;DHT22;51898;49.864;8.550;2022-08-14T08:27:38;27.10;99.90
10089;DHT22;51898;49.864;8.550;2022-08-14T08:30:57;27.10;99.90
10089;DHT22;51898;49.864;8.550;2022-08-14T08:34:03;27.40;99.90
10089;DHT22;51898;49.864;8.550;2022-08-14T08:37:06;27.50;99.90
10089;DHT22;51898;49.864;8.550;2022-08-14T08:40:10;27.70;99.90
10089;DHT22;51898;49.864;8.550;2022-08-14T08:43:27;27.60;99.90
10089;DHT22;51898;49.864;8.550;2022-08-14T08:46:29;27.50;99.90
10089;DHT22;51898;49.864;8.550;2022-08-14T08:49:41;27.60;99.90
10089;DHT22;51898;49.864;8.550;2022-08-14T08:53:06;27.60;99.90
10089;DHT22;51898;49.864;8.550;2022-08-14T08:56:09;27.70;99.90
10089;DHT22;51898;49.864;8.550;2022-08-14T08:59:31;27.80;99.90
10089;DHT22;51898;49.864;8.550;2022-08-14T09:02:35;27.90;99.90
10089;DHT22;51898;49.864;8.550;2022-08-14T09:05:47;27.90;99.90
10089;DHT22;51898;49.864;8.550;2022-08-14T09:08:54;28.00;99.90
10089;DHT22;51898;49.864;8.550;2022-08-14T09:11:59;28.10;99.90
10089;DHT22;51898;49.864;8.550;2022-08-14T09:15:02;28.10;99.90
10089;DHT22;51898;49.864;8.550;2022-08-14T09:18:13;28.30;99.60
10089;DHT22;51898;49.864;8.550;2022-08-14T09:21:19;28.30;99.20
10089;DHT22;51898;49.864;8.550;2022-08-14T09:24:25;28.40;98.40
10089;DHT22;51898;49.864;8.550;2022-08-14T09:27:37;28.50;98.90
10089;DHT22;51898;49.864;8.550;2022-08-14T09:30:47;28.70;98.10
10089;DHT22;51898;49.864;8.550;2022-08-14T09:37:53;28.80;97.40
10089;DHT22;51898;49.864;8.550;2022-08-14T09:41:12;28.90;95.70
10089;DHT22;51898;49.864;8.550;2022-08-14T09:44:41;29.10;94.90
10089;DHT22;51898;49.864;8.550;2022-08-14T09:47:52;29.00;93.70
10089;DHT22;51898;49.864;8.550;2022-08-14T09:50:55;29.00;93.70
10089;DHT22;51898;49.864;8.550;2022-08-14T09:54:08;29.00;93.30
10089;DHT22;51898;49.864;8.550;2022-08-14T09:57:26;29.00;93.10
10089;DHT22;51898;49.864;8.550;2022-08-14T10:00:47;29.20;92.30
10089;DHT22;51898;49.864;8.550;2022-08-14T10:03:54;29.30;92.10
10089;DHT22;51898;49.864;8.550;2022-08-14T10:07:00;29.40;91.80
10089;DHT22;51898;49.864;8.550;2022-08-14T10:10:03;29.60;91.00
10089;DHT22;51898;49.864;8.550;2022-08-14T10:13:24;29.60;89.70
10089;DHT22;51898;49.864;8.550;2022-08-14T10:16:28;29.40;88.80
10089;DHT22;51898;49.864;8.550;2022-08-14T10:19:34;29.50;88.60
10089;DHT22;51898;49.864;8.550;2022-08-14T10:22:37;29.80;85.90
10089;DHT22;51898;49.864;8.550;2022-08-14T10:26:05;29.80;84.60
10089;DHT22;51898;49.864;8.550;2022-08-14T10:29:08;29.90;82.20
10089;DHT22;51898;49.864;8.550;2022-08-14T10:32:24;29.90;81.20
10089;DHT22;51898;49.864;8.550;2022-08-14T10:35:46;30.10;79.30
10089;DHT22;51898;49.864;8.550;2022-08-14T10:38:55;30.10;78.90
10089;DHT22;51898;49.864;8.550;2022-08-14T10:42:07;30.20;76.50
10089;DHT22;51898;49.864;8.550;2022-08-14T10:45:32;30.10;77.60
10089;DHT22;51898;49.864;8.550;2022-08-14T10:48:58;30.00;78.10
10089;DHT22;51898;49.864;8.550;2022-08-14T10:52:19;30.20;76.70
10089;DHT22;51898;49.864;8.550;2022-08-14T10:55:22;30.30;75.70
10089;DHT22;51898;49.864;8.550;2022-08-14T10:58:29;30.20;75.90
10089;DHT22;51898;49.864;8.550;2022-08-14T11:01:37;30.20;76.00
10089;DHT22;51898;49.864;8.550;2022-08-14T11:04:42;30.40;75.50
10089;DHT22;51898;49.864;8.550;2022-08-14T11:07:55;30.50;75.30
10089;DHT22;51898;49.864;8.550;2022-08-14T11:11:02;30.70;75.80
10089;DHT22;51898;49.864;8.550;2022-08-14T11:14:06;31.10;73.20
10089;DHT22;51898;49.864;8.550;2022-08-14T11:17:10;31.30;71.90
10089;DHT22;51898;49.864;8.550;2022-08-14T11:20:18;31.40;72.20
10089;DHT22;51898;49.864;8.550;2022-08-14T11:23:31;31.70;71.50
10089;DHT22;51898;49.864;8.550;2022-08-14T11:26:43;31.90;70.10
10089;DHT22;51898;49.864;8.550;2022-08-14T11:29:46;32.00;68.40
10089;DHT22;51898;49.864;8.550;2022-08-14T11:33:01;31.90;67.50
10089;DHT22;51898;49.864;8.550;2022-08-14T11:36:07;31.70;66.20
10089;DHT22;51898;49.864;8.550;2022-08-14T11:39:21;31.90;66.50
10089;DHT22;51898;49.864;8.550;2022-08-14T11:42:35;32.30;66.10
10089;DHT22;51898;49.864;8.550;2022-08-14T11:45:59;32.50;63.60
10089;DHT22;51898;49.864;8.550;2022-08-14T11:49:07;32.40;63.00
10089;DHT22;51898;49.864;8.550;2022-08-14T11:52:12;32.40;62.30
10089;DHT22;51898;49.864;8.550;2022-08-14T11:55:14;32.60;61.70
10089;DHT22;51898;49.864;8.550;2022-08-14T11:58:17;32.50;60.40
10089;DHT22;51898;49.864;8.550;2022-08-14T12:01:27;32.30;60.00
10089;DHT22;51898;49.864;8.550;2022-08-14T12:04:29;32.20;59.80
10089;DHT22;51898;49.864;8.550;2022-08-14T12:07:34;32.00;59.70
10089;DHT22;51898;49.864;8.550;2022-08-14T12:10:38;32.20;59.20
10089;DHT22;51898;49.864;8.550;2022-08-14T12:13:43;32.30;58.90
10089;DHT22;51898;49.864;8.550;2022-08-14T12:17:01;32.50;58.30
10089;DHT22;51898;49.864;8.550;2022-08-14T12:20:05;32.70;58.50
10089;DHT22;51898;49.864;8.550;2022-08-14T12:23:23;32.80;57.60
10089;DHT22;51898;49.864;8.550;2022-08-14T12:26:25;33.00;58.20
10089;DHT22;51898;49.864;8.550;2022-08-14T12:29:52;33.30;58.10
10089;DHT22;51898;49.864;8.550;2022-08-14T12:32:54;33.90;57.80
10089;DHT22;51898;49.864;8.550;2022-08-14T12:35:58;33.80;56.10
10089;DHT22;51898;49.864;8.550;2022-08-14T12:39:18;33.70;56.00
10089;DHT22;51898;49.864;8.550;2022-08-14T12:42:32;33.60;55.60
10089;DHT22;51898;49.864;8.550;2022-08-14T12:45:46;33.00;55.70
10089;DHT22;51898;49.864;8.550;2022-08-14T12:48:53;32.80;55.90
10089;DHT22;51898;49.864;8.550;2022-08-14T12:51:57;32.80;55.90
10089;DHT22;51898;49.864;8.550;2022-08-14T12:55:03;32.80;56.40
10089;DHT22;51898;49.864;8.550;2022-08-14T12:58:07;33.40;56.10
10089;DHT22;51898;49.864;8.550;2022-08-14T13:01:31;33.80;55.60
10089;DHT22;51898;49.864;8.550;2022-08-14T13:04:54;34.10;56.10
10089;DHT22;51898;49.864;8.550;2022-08-14T13:07:58;34.30;55.30
10089;DHT22;51898;49.864;8.550;2022-08-14T13:11:01;34.50;55.60
10089;DHT22;51898;49.864;8.550;2022-08-14T13:14:13;34.40;54.50
10089;DHT22;51898;49.864;8.550;2022-08-14T13:17:18;34.30;54.10
10089;DHT22;51898;49.864;8.550;2022-08-14T13:20:23;34.20;53.80
10089;DHT22;51898;49.864;8.550;2022-08-14T13:23:34;34.50;53.70
10089;DHT22;51898;49.864;8.550;2022-08-14T13:26:49;34.80;54.40
10089;DHT22;51898;49.864;8.550;2022-08-14T13:29:56;34.80;53.10
10089;DHT22;51898;49.864;8.550;2022-08-14T13:32:58;35.00;53.30
10089;DHT22;51898;49.864;8.550;2022-08-14T13:36:02;35.10;52.40
10089;DHT22;51898;49.864;8.550;2022-08-14T13:39:05;35.40;52.40
10089;DHT22;51898;49.864;8.550;2022-08-14T13:42:08;35.30;52.00
10089;DHT22;51898;49.864;8.550;2022-08-14T13:45:14;35.30;51.70
10089;DHT22;51898;49.864;8.550;2022-08-14T13:48:17;35.40;52.00
10089;DHT22;51898;49.864;8.550;2022-08-14T13:51:36;35.40;52.20
10089;DHT22;51898;49.864;8.550;2022-08-14T13:54:39;35.40;51.20
10089;DHT22;51898;49.864;8.550;2022-08-14T13:57:42;35.10;51.10
10089;DHT22;51898;49.864;8.550;2022-08-14T14:01:03;34.50;51.10
10089;DHT22;51898;49.864;8.550;2022-08-14T14:04:09;34.60;51.30
10089;DHT22;51898;49.864;8.550;2022-08-14T14:07:20;34.70;51.30
10089;DHT22;51898;49.864;8.550;2022-08-14T14:10:24;34.60;51.10
10089;DHT22;51898;49.864;8.550;2022-08-14T14:13:30;34.80;50.70
10089;DHT22;51898;49.864;8.550;2022-08-14T14:16:34;35.10;50.90
10089;DHT22;51898;49.864;8.550;2022-08-14T14:19:37;35.50;51.20
10089;DHT22;51898;49.864;8.550;2022-08-14T14:22:43;35.70;50.70
10089;DHT22;51898;49.864;8.550;2022-08-14T14:26:03;35.80;50.30
10089;DHT22;51898;49.864;8.550;2022-08-14T14:29:07;36.20;50.20
10089;DHT22;51898;49.864;8.550;2022-08-14T14:32:10;36.40;49.90
10089;DHT22;51898;49.864;8.550;2022-08-14T14:35:22;36.60;49.90
10089;DHT22;51898;49.864;8.550;2022-08-14T14:38:37;36.50;49.80
10089;DHT22;51898;49.864;8.550;2022-08-14T14:41:47;35.90;50.60
10089;DHT22;51898;49.864;8.550;2022-08-14T14:45:07;35.70;50.20
10089;DHT22;51898;49.864;8.550;2022-08-14T14:48:16;35.00;50.90
10089;DHT22;51898;49.864;8.550;2022-08-14T14:51:20;34.80;51.00
10089;DHT22;51898;49.864;8.550;2022-08-14T14:54:22;34.40;51.20
10089;DHT22;51898;49.864;8.550;2022-08-14T14:57:33;34.20;51.60
10089;DHT22;51898;49.864;8.550;2022-08-14T15:00:37;34.70;51.60
10089;DHT22;51898;49.864;8.550;2022-08-14T15:03:41;35.00;51.00
10089;DHT22;51898;49.864;8.550;2022-08-14T15:06:44;35.00;50.80
10089;DHT22;51898;49.864;8.550;2022-08-14T15:09:48;34.80;50.90
10089;DHT22;51898;49.864;8.550;2022-08-14T15:12:52;34.50;51.00
10089;DHT22;51898;49.864;8.550;2022-08-14T15:15:57;34.40;51.40
10089;DHT22;51898;49.864;8.550;2022-08-14T15:19:01;34.60;51.40
10089;DHT22;51898;49.864;8.550;2022-08-14T15:22:03;34.50;51.30
10089;DHT22;51898;49.864;8.550;2022-08-14T15:25:09;34.70;51.10
10089;DHT22;51898;49.864;8.550;2022-08-14T15:28:11;34.90;51.30
10089;DHT22;51898;49.864;8.550;2022-08-14T15:31:22;35.20;51.10
10089;DHT22;51898;49.864;8.550;2022-08-14T15:34:23;35.20;50.90
10089;DHT22;51898;49.864;8.550;2022-08-14T15:37:49;35.20;50.40
10089;DHT22;51898;49.864;8.550;2022-08-14T15:40:58;34.70;50.60
10089;DHT22;51898;49.864;8.550;2022-08-14T15:44:09;34.80;50.60
10089;DHT22;51898;49.864;8.550;2022-08-14T15:47:28;35.00;50.70
10089;DHT22;51898;49.864;8.550;2022-08-14T15:50:31;34.80;50.40
10089;DHT22;51898;49.864;8.550;2022-08-14T15:53:34;34.50;50.60
10089;DHT22;51898;49.864;8.550;2022-08-14T15:56:36;34.40;50.60
10089;DHT22;51898;49.864;8.550;2022-08-14T15:59:43;34.20;50.70
10089;DHT22;51898;49.864;8.550;2022-08-14T16:03:04;34.20;51.00
10089;DHT22;51898;49.864;8.550;2022-08-14T16:06:18;34.50;50.90
10089;DHT22;51898;49.864;8.550;2022-08-14T16:09:19;35.00;50.60
10089;DHT22;51898;49.864;8.550;2022-08-14T16:12:22;35.20;50.20
10089;DHT22;51898;49.864;8.550;2022-08-14T16:15:44;35.20;49.90
10089;DHT22;51898;49.864;8.550;2022-08-14T16:18:54;35.30;50.00
10089;DHT22;51898;49.864;8.550;2022-08-14T16:22:04;34.70;50.60
10089;DHT22;51898;49.864;8.550;2022-08-14T16:25:26;34.40;50.20
10089;DHT22;51898;49.864;8.550;2022-08-14T16:28:50;34.20;50.70
10089;DHT22;51898;49.864;8.550;2022-08-14T16:31:53;34.20;50.70
10089;DHT22;51898;49.864;8.550;2022-08-14T16:34:55;34.10;50.60
10089;DHT22;51898;49.864;8.550;2022-08-14T16:37:58;34.20;50.60
10089;DHT22;51898;49.864;8.550;2022-08-14T16:41:21;34.20;50.50
10089;DHT22;51898;49.864;8.550;2022-08-14T16:44:32;34.10;50.20
10089;DHT22;51898;49.864;8.550;2022-08-14T16:47:41;34.20;50.30
10089;DHT22;51898;49.864;8.550;2022-08-14T16:50:43;34.10;50.70
10089;DHT22;51898;49.864;8.550;2022-08-14T16:53:46;34.00;50.50
10089;DHT22;51898;49.864;8.550;2022-08-14T16:56:48;33.70;51.40
10089;DHT22;51898;49.864;8.550;2022-08-14T16:59:54;33.50;50.80
10089;DHT22;51898;49.864;8.550;2022-08-14T17:03:08;33.20;51.70
10089;DHT22;51898;49.864;8.550;2022-08-14T17:06:12;33.00;51.90
10089;DHT22;51898;49.864;8.550;2022-08-14T17:09:42;33.00;52.20
10089;DHT22;51898;49.864;8.550;2022-08-14T17:12:50;32.90;52.60
10089;DHT22;51898;49.864;8.550;2022-08-14T17:16:03;32.80;53.20
10089;DHT22;51898;49.864;8.550;2022-08-14T17:19:07;32.70;53.10
10089;DHT22;51898;49.864;8.550;2022-08-14T17:22:15;32.50;52.60
10089;DHT22;51898;49.864;8.550;2022-08-14T17:28:23;32.10;53.40
10089;DHT22;51898;49.864;8.550;2022-08-14T17:31:50;32.00;53.80
10089;DHT22;51898;49.864;8.550;2022-08-14T17:35:02;31.90;54.40
10089;DHT22;51898;49.864;8.550;2022-08-14T17:38:10;31.70;55.00
10089;DHT22;51898;49.864;8.550;2022-08-14T17:41:43;31.60;55.00
10089;DHT22;51898;49.864;8.550;2022-08-14T17:45:03;31.40;55.10
10089;DHT22;51898;49.864;8.550;2022-08-14T17:48:24;31.20;55.00
10089;DHT22;51898;49.864;8.550;2022-08-14T17:52:06;31.10;54.80
10089;DHT22;51898;49.864;8.550;2022-08-14T17:55:18;30.90;54.40
10089;DHT22;51898;49.864;8.550;2022-08-14T17:58:42;30.80;54.60
10089;DHT22;51898;49.864;8.550;2022-08-14T18:01:43;30.80;54.80
10089;DHT22;51898;49.864;8.550;2022-08-14T18:04:47;30.70;55.30
10089;DHT22;51898;49.864;8.550;2022-08-14T18:07:51;30.60;55.70
10089;DHT22;51898;49.864;8.550;2022-08-14T18:11:14;30.50;55.70
10089;DHT22;51898;49.864;8.550;2022-08-14T18:14:24;30.40;55.90
10089;DHT22;51898;49.864;8.550;2022-08-14T18:17:33;30.30;56.30
10089;DHT22;51898;49.864;8.550;2022-08-14T18:20:38;30.10;56.50
10089;DHT22;51898;49.864;8.550;2022-08-14T18:24:00;29.90;56.50
10089;DHT22;51898;49.864;8.550;2022-08-14T18:27:21;29.70;58.10
10089;DHT22;51898;49.864;8.550;2022-08-14T18:30:25;29.50;58.00
10089;DHT22;51898;49.864;8.550;2022-08-14T18:33:50;29.40;57.60
10089;DHT22;51898;49.864;8.550;2022-08-14T18:36:54;29.20;57.20
10089;DHT22;51898;49.864;8.550;2022-08-14T18:43:43;29.00;57.60
10089;DHT22;51898;49.864;8.550;2022-08-14T18:50:24;28.70;58.50
10089;DHT22;51898;49.864;8.550;2022-08-14T18:53:54;28.50;58.70
10089;DHT22;51898;49.864;8.550;2022-08-14T18:57:00;28.40;58.90
10089;DHT22;51898;49.864;8.550;2022-08-14T19:00:42;28.30;58.90
10089;DHT22;51898;49.864;8.550;2022-08-14T19:03:52;28.20;59.70
10089;DHT22;51898;49.864;8.550;2022-08-14T19:07:14;28.00;59.40
10089;DHT22;51898;49.864;8.550;2022-08-14T19:10:28;28.00;59.50
10089;DHT22;51898;49.864;8.550;2022-08-14T19:13:39;27.80;59.60
10089;DHT22;51898;49.864;8.550;2022-08-14T19:16:51;27.70;60.10
10089;DHT22;51898;49.864;8.550;2022-08-14T19:20:05;27.60;60.90
10089;DHT22;51898;49.864;8.550;2022-08-14T19:23:15;27.60;61.50
10089;DHT22;51898;49.864;8.550;2022-08-14T19:26:21;27.50;61.90
10089;DHT22;51898;49.864;8.550;2022-08-14T19:29:37;27.40;62.30
10089;DHT22;51898;49.864;8.550;2022-08-14T19:32:40;27.40;63.00
10089;DHT22;51898;49.864;8.550;2022-08-14T19:35:43;27.30;63.20
10089;DHT22;51898;49.864;8.550;2022-08-14T19:39:00;27.20;63.60
10089;DHT22;51898;49.864;8.550;2022-08-14T19:42:04;27.10;65.00
10089;DHT22;51898;49.864;8.550;2022-08-14T19:45:14;27.00;64.30
10089;DHT22;51898;49.864;8.550;2022-08-14T19:48:16;26.90;64.60
10089;DHT22;51898;49.864;8.550;2022-08-14T19:51:18;26.80;64.90
10089;DHT22;51898;49.864;8.550;2022-08-14T19:54:33;26.70;67.00
10089;DHT22;51898;49.864;8.550;2022-08-14T19:57:35;26.60;67.80
10089;DHT22;51898;49.864;8.550;2022-08-14T20:00:37;26.50;68.40
10089;DHT22;51898;49.864;8.550;2022-08-14T20:03:53;26.40;69.20
10089;DHT22;51898;49.864;8.550;2022-08-14T20:07:01;26.30;70.50
10089;DHT22;51898;49.864;8.550;2022-08-14T20:10:22;26.20;70.80